createdAt,value
2018-05-25T00:00:39.729Z,8.67
2018-05-25T00:03:07.190Z,7.93
2018-05-25T00:05:34.757Z,7.17
2018-05-25T00:08:02.312Z,8.33
2018-05-25T00:10:29.789Z,7.90
2018-05-25T00:12:57.259Z,8.73
2018-05-25T00:15:24.780Z,8.80
2018-05-25T00:17:52.241Z,8.17
2018-05-25T00:20:19.710Z,9.07
2018-05-25T00:22:47.165Z,7.67
2018-05-25T00:25:14.638Z,8.50
2018-05-25T00:27:42.130Z,6.47
2018-05-25T00:30:09.681Z,6.67
2018-05-25T00:32:37.150Z,8.07
2018-05-25T00:35:06.133Z,8.70
2018-05-25T00:37:33.687Z,9.00
2018-05-25T00:40:01.147Z,8.20
2018-05-25T00:42:28.624Z,6.93
2018-05-25T00:44:56.087Z,8.37
2018-05-25T00:47:23.653Z,7.20
2018-05-25T00:49:51.133Z,7.03
2018-05-25T00:52:18.684Z,7.40
2018-05-25T00:54:58.033Z,10.13
2018-05-25T00:57:26.251Z,9.53
2018-05-25T00:59:53.722Z,7.23
2018-05-25T01:02:21.678Z,9.27
2018-05-25T01:04:49.150Z,10.20
2018-05-25T01:07:16.654Z,8.53
2018-05-25T01:09:44.149Z,9.40
2018-05-25T01:12:12.380Z,10.60
2018-05-25T01:14:39.824Z,8.77
2018-05-25T01:17:07.417Z,8.47
2018-05-25T01:19:36.397Z,8.93
2018-05-25T01:22:03.857Z,7.87
2018-05-25T01:24:31.333Z,8.03
2018-05-25T01:26:58.815Z,10.33
2018-05-25T01:29:26.371Z,6.63
2018-05-25T01:31:53.925Z,8.40
2018-05-25T01:34:21.404Z,7.13
2018-05-25T01:36:48.970Z,6.27
2018-05-25T01:39:17.188Z,7.37
2018-05-25T01:41:44.654Z,11.30
2018-05-25T01:44:12.129Z,7.53
2018-05-25T01:46:39.591Z,11.13
2018-05-25T01:49:07.192Z,11.60
2018-05-25T01:51:34.660Z,9.40
2018-05-25T01:54:02.892Z,8.53
2018-05-25T01:56:30.360Z,9.33
2018-05-25T01:58:57.857Z,9.17
2018-05-25T02:01:25.411Z,9.23
2018-05-25T02:03:52.878Z,9.97
2018-05-25T02:06:20.371Z,11.10
2018-05-25T02:08:49.192Z,7.80
2018-05-25T02:11:16.672Z,9.37
2018-05-25T02:13:44.155Z,8.27
2018-05-25T02:16:11.638Z,8.00
2018-05-25T02:18:39.091Z,10.07
2018-05-25T02:21:06.703Z,10.63
2018-05-25T02:23:34.228Z,9.20
2018-05-25T02:26:02.450Z,7.93
2018-05-25T02:28:29.938Z,12.10
2018-05-25T02:30:57.399Z,13.00
2018-05-25T02:33:24.873Z,9.10
2018-05-25T02:35:52.444Z,10.63
2018-05-25T02:38:20.022Z,12.20
2018-05-25T02:40:48.299Z,11.40
2018-05-25T02:43:15.795Z,11.80
2018-05-25T02:45:43.241Z,8.20
2018-05-25T02:48:11.483Z,9.30
2018-05-25T02:50:38.957Z,11.03
2018-05-25T02:53:06.426Z,10.57
2018-05-25T02:55:33.891Z,7.43
2018-05-25T02:58:02.163Z,9.00
2018-05-25T03:00:29.642Z,8.27
2018-05-25T03:02:57.176Z,11.03
2018-05-25T03:05:24.645Z,10.23
2018-05-25T03:07:52.110Z,12.47
2018-05-25T03:10:19.578Z,10.13
2018-05-25T03:12:47.142Z,11.67
2018-05-25T03:15:15.264Z,8.27
2018-05-25T03:17:42.731Z,11.60
2018-05-25T03:20:10.197Z,12.27
2018-05-25T03:22:37.665Z,10.07
2018-05-25T03:25:05.268Z,9.60
2018-05-25T03:27:32.810Z,8.47
2018-05-25T03:30:00.286Z,11.13
2018-05-25T03:32:27.740Z,8.10
2018-05-25T03:34:55.207Z,7.73
2018-05-25T03:37:22.668Z,9.80
2018-05-25T03:39:50.145Z,12.40
2018-05-25T03:42:17.617Z,10.57
2018-05-25T03:44:45.839Z,9.73
2018-05-25T03:47:13.329Z,12.67
2018-05-25T03:49:40.799Z,11.27
2018-05-25T03:52:08.266Z,13.07
2018-05-25T03:54:35.744Z,9.07
2018-05-25T03:57:03.233Z,10.63
2018-05-25T03:59:42.689Z,11.43
2018-05-25T04:02:10.169Z,11.73
2018-05-25T04:04:37.745Z,12.57
2018-05-25T04:07:05.222Z,11.07
2018-05-25T04:09:32.749Z,10.20
2018-05-25T04:12:00.213Z,12.40
2018-05-25T04:14:27.675Z,9.20
2018-05-25T04:16:55.167Z,10.00
2018-05-25T04:19:22.733Z,9.83
2018-05-25T04:21:51.169Z,9.43
2018-05-25T04:24:18.648Z,12.53
2018-05-25T04:26:46.119Z,11.30
2018-05-25T04:29:13.584Z,10.70
2018-05-25T04:31:41.069Z,9.83
2018-05-25T04:34:08.526Z,12.10
2018-05-25T04:36:36.088Z,7.50
2018-05-25T04:39:03.598Z,10.27
2018-05-25T04:41:31.107Z,8.97
2018-05-25T04:43:58.681Z,11.17
2018-05-25T04:46:26.205Z,10.43
2018-05-25T04:48:53.672Z,12.73
2018-05-25T04:51:21.134Z,10.23
2018-05-25T04:53:48.596Z,9.27
2018-05-25T04:56:16.059Z,11.67
2018-05-25T04:58:43.564Z,12.43
2018-05-25T05:01:11.824Z,11.77
2018-05-25T05:03:39.401Z,10.00
2018-05-25T05:06:08.489Z,10.50
2018-05-25T05:08:35.966Z,12.00
2018-05-25T05:11:03.520Z,12.27
2018-05-25T05:13:31.083Z,10.13
2018-05-25T05:15:58.533Z,8.60
2018-05-25T05:18:26.095Z,9.27
2018-05-25T05:20:53.682Z,12.20
2018-05-25T05:23:21.155Z,13.27
2018-05-25T05:25:49.401Z,12.63
2018-05-25T05:28:17.450Z,11.07
2018-05-25T05:30:44.929Z,13.27
2018-05-25T05:33:12.416Z,11.53
2018-05-25T05:35:39.884Z,12.20
2018-05-25T05:38:07.360Z,10.87
2018-05-25T05:40:35.624Z,11.10
2018-05-25T05:43:03.092Z,11.90
2018-05-25T05:45:31.334Z,11.37
2018-05-25T05:47:58.818Z,9.20
2018-05-25T05:50:26.386Z,11.23
2018-05-25T05:52:53.840Z,9.30
2018-05-25T05:55:21.402Z,8.70
2018-05-25T05:57:48.896Z,11.07
2018-05-25T06:00:17.129Z,9.93
2018-05-25T06:02:44.617Z,11.63
2018-05-25T06:05:12.077Z,11.53
2018-05-25T06:07:39.554Z,13.37
2018-05-25T06:10:07.037Z,11.33
2018-05-25T06:12:35.286Z,11.53
2018-05-25T06:15:02.786Z,9.27
2018-05-25T06:17:31.009Z,12.30
2018-05-25T06:19:58.592Z,12.17
2018-05-25T06:22:26.060Z,11.60
2018-05-25T06:24:53.542Z,12.80
2018-05-25T06:27:21.013Z,10.90
2018-05-25T06:29:49.274Z,12.10
2018-05-25T06:32:16.824Z,15.40
2018-05-25T06:34:44.671Z,12.30
2018-05-25T06:37:12.128Z,12.07
2018-05-25T06:39:39.627Z,15.00
2018-05-25T06:42:07.091Z,14.07
2018-05-25T06:44:35.362Z,11.20
2018-05-25T06:47:02.875Z,12.87
2018-05-25T06:49:30.343Z,13.83
2018-05-25T06:51:57.812Z,12.47
2018-05-25T06:54:25.316Z,12.37
2018-05-25T06:56:52.871Z,11.40
2018-05-25T06:59:20.373Z,14.90
2018-05-25T07:01:48.607Z,13.60
2018-05-25T07:04:16.079Z,14.03
2018-05-25T07:06:43.554Z,15.00
2018-05-25T07:09:11.063Z,11.83
2018-05-25T07:11:38.582Z,13.83
2018-05-25T07:14:06.046Z,14.57
2018-05-25T07:16:33.596Z,15.53
2018-05-25T07:19:01.078Z,16.13
2018-05-25T07:21:29.332Z,13.77
2018-05-25T07:23:56.804Z,15.90
2018-05-25T07:26:24.363Z,11.43
2018-05-25T07:28:51.826Z,15.03
2018-05-25T07:31:20.817Z,14.13
2018-05-25T07:33:48.309Z,13.40
2018-05-25T07:36:16.554Z,13.83
2018-05-25T07:38:44.028Z,16.57
2018-05-25T07:41:11.513Z,15.87
2018-05-25T07:43:39.754Z,14.43
2018-05-25T07:46:07.238Z,15.07
2018-05-25T07:48:34.711Z,14.40
2018-05-25T07:51:02.987Z,12.03
2018-05-25T07:53:30.542Z,15.50
2018-05-25T07:55:58.780Z,12.67
2018-05-25T07:58:26.260Z,13.67
2018-05-25T08:00:53.728Z,11.67
2018-05-25T08:03:21.314Z,11.03
2018-05-25T08:05:49.540Z,14.07
2018-05-25T08:08:17.017Z,10.57
2018-05-25T08:10:44.513Z,14.50
2018-05-25T08:13:12.081Z,10.70
2018-05-25T08:15:39.644Z,12.07
2018-05-25T08:18:07.117Z,12.93
2018-05-25T08:20:34.610Z,14.10
2018-05-25T08:23:02.086Z,13.97
2018-05-25T08:25:29.545Z,12.57
2018-05-25T08:27:57.022Z,15.70
2018-05-25T08:30:24.492Z,14.37
2018-05-25T08:32:52.074Z,11.70
2018-05-25T08:35:19.552Z,12.30
2018-05-25T08:37:47.037Z,14.67
2018-05-25T08:40:15.279Z,12.83
2018-05-25T08:42:42.843Z,10.07
2018-05-25T08:45:10.311Z,10.20
2018-05-25T08:47:37.787Z,13.97
2018-05-25T08:50:05.349Z,14.47
2018-05-25T08:52:32.808Z,13.97
2018-05-25T08:55:00.363Z,11.87
2018-05-25T08:57:27.838Z,13.20
2018-05-25T08:59:56.064Z,13.17
2018-05-25T09:02:23.557Z,12.13
2018-05-25T09:04:51.025Z,10.03
2018-05-25T09:07:18.514Z,10.57
2018-05-25T09:09:46.765Z,11.07
2018-05-25T09:12:14.334Z,12.43
2018-05-25T09:14:41.804Z,9.17
2018-05-25T09:17:09.371Z,9.93
2018-05-25T09:19:36.942Z,8.80
2018-05-25T09:22:05.931Z,8.57
2018-05-25T09:24:33.491Z,8.53
2018-05-25T09:27:00.959Z,9.00
2018-05-25T09:29:28.524Z,7.93
2018-05-25T09:31:56.011Z,8.07
2018-05-25T09:34:24.256Z,10.17
2018-05-25T09:36:51.723Z,9.20
2018-05-25T09:39:19.193Z,8.67
2018-05-25T09:41:47.470Z,9.10
2018-05-25T09:44:14.927Z,8.23
2018-05-25T09:46:42.385Z,10.13
2018-05-25T09:49:09.881Z,10.23
2018-05-25T09:51:38.133Z,10.50
2018-05-25T09:54:05.958Z,9.07
2018-05-25T09:56:33.419Z,8.90
2018-05-25T09:59:00.899Z,7.83
2018-05-25T10:01:28.375Z,7.50
2018-05-25T10:03:55.840Z,8.27
2018-05-25T10:06:23.415Z,7.83
2018-05-25T10:08:50.879Z,7.63
2018-05-25T10:11:19.209Z,8.37
2018-05-25T10:13:46.726Z,7.47
2018-05-25T10:16:14.209Z,9.10
2018-05-25T10:18:42.458Z,8.93
2018-05-25T10:21:09.933Z,7.63
2018-05-25T10:23:37.409Z,8.07
2018-05-25T10:26:04.876Z,9.30
2018-05-25T10:28:33.110Z,8.93
2018-05-25T10:31:00.592Z,5.67
2018-05-25T10:33:28.065Z,7.83
2018-05-25T10:35:56.303Z,10.50
2018-05-25T10:38:23.771Z,7.83
2018-05-25T10:40:51.265Z,7.20
2018-05-25T10:43:18.849Z,8.67
2018-05-25T10:45:47.081Z,8.53
2018-05-25T10:48:14.559Z,9.60
2018-05-25T10:50:42.024Z,6.60
2018-05-25T10:53:09.496Z,7.33
2018-05-25T10:55:36.961Z,7.43
2018-05-25T10:58:04.535Z,10.87
2018-05-25T11:00:32.802Z,9.30
2018-05-25T11:03:00.365Z,9.20
2018-05-25T11:05:29.573Z,8.07
2018-05-25T11:07:57.038Z,8.07
2018-05-25T11:10:24.497Z,6.60
2018-05-25T11:12:52.731Z,6.17
2018-05-25T11:15:20.201Z,11.50
2018-05-25T11:17:47.665Z,12.10
2018-05-25T11:20:15.170Z,7.93
2018-05-25T11:22:42.722Z,7.77
2018-05-25T11:25:10.198Z,8.40
2018-05-25T11:27:38.472Z,11.57
2018-05-25T11:30:06.741Z,7.40
2018-05-25T11:32:34.210Z,8.97
2018-05-25T11:35:02.499Z,9.47
2018-05-25T11:37:30.727Z,5.20
2018-05-25T11:39:58.191Z,7.10
2018-05-25T11:42:25.702Z,9.93
2018-05-25T11:44:53.167Z,8.47
2018-05-25T11:47:21.411Z,8.53
2018-05-25T11:49:48.906Z,8.87
2018-05-25T11:52:17.163Z,9.40
2018-05-25T11:54:44.753Z,8.93
2018-05-25T11:57:13.018Z,8.40
2018-05-25T11:59:40.501Z,8.77
2018-05-25T12:02:07.973Z,7.00
2018-05-25T12:04:36.225Z,8.37
2018-05-25T12:07:03.678Z,6.77
2018-05-25T12:09:31.245Z,6.70
2018-05-25T12:12:00.021Z,7.23
2018-05-25T12:14:27.505Z,5.73
2018-05-25T12:16:54.972Z,7.93
2018-05-25T12:19:23.187Z,7.43
2018-05-25T12:21:50.680Z,4.67
2018-05-25T12:24:18.127Z,6.53
2018-05-25T12:26:45.606Z,7.30
2018-05-25T12:29:13.074Z,6.57
2018-05-25T12:31:40.560Z,6.07
2018-05-25T12:34:08.128Z,7.07
2018-05-25T12:36:36.338Z,6.47
2018-05-25T12:39:04.570Z,6.20
2018-05-25T12:41:32.042Z,5.30
2018-05-25T12:43:59.605Z,5.03
2018-05-25T12:46:27.067Z,7.20
2018-05-25T12:48:54.551Z,4.70
2018-05-25T12:51:22.021Z,6.47
2018-05-25T12:53:50.261Z,5.60
2018-05-25T12:56:17.721Z,7.77
2018-05-25T12:58:45.180Z,5.80
2018-05-25T13:01:12.644Z,6.90
2018-05-25T13:03:40.113Z,5.63
2018-05-25T13:06:07.568Z,4.83
2018-05-25T13:08:35.050Z,7.90
2018-05-25T13:11:02.503Z,5.73
2018-05-25T13:13:30.078Z,4.50
2018-05-25T13:15:58.357Z,4.50
2018-05-25T13:18:26.706Z,5.53
2018-05-25T13:20:54.160Z,6.70
2018-05-25T13:23:21.630Z,6.67
2018-05-25T13:25:49.098Z,5.60
2018-05-25T13:28:16.583Z,4.40
2018-05-25T13:30:44.131Z,6.60
2018-05-25T13:33:11.624Z,5.47
2018-05-25T13:35:39.182Z,11.50
2018-05-25T13:38:07.429Z,7.97
2018-05-25T13:40:34.893Z,5.90
2018-05-25T13:43:02.347Z,6.73
2018-05-25T13:45:29.819Z,9.20
2018-05-25T13:47:57.288Z,8.63
2018-05-25T13:50:24.865Z,6.10
2018-05-25T13:52:52.320Z,6.80
2018-05-25T13:55:19.788Z,7.23
2018-05-25T13:57:47.353Z,7.50
2018-05-25T14:00:14.815Z,6.90
2018-05-25T14:02:42.388Z,7.80
2018-05-25T14:05:11.363Z,8.47
2018-05-25T14:07:38.841Z,6.97
2018-05-25T14:10:06.403Z,7.70
2018-05-25T14:12:33.983Z,9.37
2018-05-25T14:15:01.439Z,7.70
2018-05-25T14:17:30.424Z,6.60
2018-05-25T14:19:57.897Z,7.47
2018-05-25T14:22:25.447Z,9.73
2018-05-25T14:24:53.732Z,7.67
2018-05-25T14:27:21.239Z,10.47
2018-05-25T14:29:49.459Z,8.23
2018-05-25T14:32:16.934Z,10.43
2018-05-25T14:34:44.423Z,8.40
2018-05-25T14:37:11.888Z,8.30
2018-05-25T14:39:39.335Z,9.17
2018-05-25T14:42:07.604Z,9.20
2018-05-25T14:44:35.181Z,13.90
2018-05-25T14:47:03.430Z,8.00
2018-05-25T14:49:30.894Z,8.10
2018-05-25T14:51:58.368Z,8.00
2018-05-25T14:54:25.824Z,7.83
2018-05-25T14:56:53.305Z,11.57
2018-05-25T14:59:22.359Z,8.03
2018-05-25T15:01:49.836Z,9.70
2018-05-25T15:04:17.322Z,11.93
2018-05-25T15:06:44.936Z,9.53
2018-05-25T15:09:13.868Z,8.50
2018-05-25T15:11:41.331Z,8.53
2018-05-25T15:14:08.810Z,8.77
2018-05-25T15:16:36.302Z,9.03
2018-05-25T15:19:04.542Z,8.77
2018-05-25T15:21:32.034Z,8.63
2018-05-25T15:23:59.576Z,8.60
2018-05-25T15:26:27.098Z,9.23
2018-05-25T15:28:54.559Z,8.83
2018-05-25T15:31:22.438Z,8.73
2018-05-25T15:33:51.043Z,8.40
2018-05-25T15:36:18.536Z,10.03
2018-05-25T15:38:46.083Z,9.20
2018-05-25T15:41:13.553Z,8.33
2018-05-25T15:43:41.024Z,8.47
2018-05-25T15:46:09.251Z,8.97
2018-05-25T15:48:36.725Z,7.73
2018-05-25T15:51:04.212Z,8.07
2018-05-25T15:53:31.690Z,8.70
2018-05-25T15:56:00.682Z,8.43
2018-05-25T15:58:28.253Z,9.27
2018-05-25T16:00:56.619Z,8.93
2018-05-25T16:03:24.099Z,11.20
2018-05-25T16:05:51.565Z,10.03
2018-05-25T16:08:19.139Z,11.13
2018-05-25T16:10:46.611Z,12.00
2018-05-25T16:13:14.837Z,10.90
2018-05-25T16:15:42.314Z,10.37
2018-05-25T16:18:09.773Z,9.53
2018-05-25T16:20:37.337Z,9.10
2018-05-25T16:23:04.820Z,11.93
2018-05-25T16:25:32.281Z,9.60
2018-05-25T16:28:00.513Z,9.40
2018-05-25T16:30:28.033Z,8.70
2018-05-25T16:32:55.513Z,8.30
2018-05-25T16:35:23.765Z,9.63
2018-05-25T16:37:51.896Z,10.63
2018-05-25T16:40:19.360Z,9.00
2018-05-25T16:42:46.859Z,7.73
2018-05-25T16:45:14.330Z,8.10
2018-05-25T16:47:42.565Z,7.87
2018-05-25T16:50:10.097Z,7.60
2018-05-25T16:52:37.490Z,7.60
2018-05-25T16:55:04.958Z,6.60
2018-05-25T16:57:32.447Z,6.90
2018-05-25T16:59:59.921Z,7.23
2018-05-25T17:02:27.490Z,8.20
2018-05-25T17:04:54.955Z,6.77
2018-05-25T17:07:22.429Z,6.67
2018-05-25T17:09:50.671Z,6.07
2018-05-25T17:12:18.140Z,7.57
2018-05-25T17:14:45.708Z,6.03
2018-05-25T17:17:13.179Z,5.70
2018-05-25T17:19:40.738Z,5.70
2018-05-25T17:22:09.024Z,6.40
2018-05-25T17:24:36.496Z,5.87
2018-05-25T17:27:03.967Z,6.53
2018-05-25T17:29:32.197Z,6.50
2018-05-25T17:31:59.668Z,5.73
2018-05-25T17:34:27.137Z,5.90
2018-05-25T17:36:54.610Z,5.70
2018-05-25T17:39:22.859Z,5.80
2018-05-25T17:41:50.337Z,6.27
2018-05-25T17:44:17.833Z,6.43
2018-05-25T17:46:45.296Z,6.00
2018-05-25T17:49:13.113Z,6.60
2018-05-25T17:51:40.590Z,6.57
2018-05-25T17:54:08.055Z,6.93
2018-05-25T17:56:35.549Z,7.00
2018-05-25T17:59:03.817Z,6.13
2018-05-25T18:01:32.797Z,5.63
2018-05-25T18:04:00.269Z,8.33
2018-05-25T18:06:27.789Z,5.50
2018-05-25T18:08:55.273Z,6.27
2018-05-25T18:11:22.743Z,5.80
2018-05-25T18:13:50.195Z,5.97
2018-05-25T18:16:17.738Z,5.83
2018-05-25T18:18:45.315Z,5.53
2018-05-25T18:21:12.824Z,6.37
2018-05-25T18:23:41.790Z,6.67
2018-05-25T18:26:09.274Z,6.13
2018-05-25T18:28:36.745Z,5.70
2018-05-25T18:31:05.712Z,6.60
2018-05-25T18:33:33.183Z,5.57
2018-05-25T18:36:00.665Z,5.63
2018-05-25T18:38:29.644Z,5.20
2018-05-25T18:40:57.208Z,5.43
2018-05-25T18:43:24.793Z,5.70
2018-05-25T18:45:52.256Z,5.53
2018-05-25T18:48:19.716Z,7.27
2018-05-25T18:50:47.185Z,6.07
2018-05-25T18:53:14.671Z,9.23
2018-05-25T18:55:42.887Z,6.57
2018-05-25T18:58:10.369Z,6.00
2018-05-25T19:00:38.227Z,7.53
2018-05-25T19:03:05.689Z,5.70
2018-05-25T19:05:33.183Z,6.23
2018-05-25T19:08:00.707Z,5.82
2018-05-25T19:10:28.162Z,5.47
2018-05-25T19:12:55.669Z,5.00
2018-05-25T19:15:23.225Z,5.60
2018-05-25T19:17:51.496Z,5.53
2018-05-25T19:20:19.055Z,6.17
2018-05-25T19:22:46.525Z,5.30
2018-05-25T19:25:14.775Z,5.63
2018-05-25T19:27:42.230Z,5.30
2018-05-25T19:30:09.735Z,5.07
2018-05-25T19:32:37.197Z,6.47
2018-05-25T19:35:04.660Z,5.20
2018-05-25T19:37:33.645Z,6.77
2018-05-25T19:40:01.262Z,5.30
2018-05-25T19:42:28.789Z,5.83
2018-05-25T19:44:57.891Z,5.17
2018-05-25T19:47:25.354Z,5.47
2018-05-25T19:49:52.811Z,5.20
2018-05-25T19:52:21.051Z,5.00
2018-05-25T19:54:48.546Z,4.90
2018-05-25T19:57:16.129Z,5.50
2018-05-25T19:59:43.588Z,5.33
2018-05-25T20:02:11.830Z,5.70
2018-05-25T20:04:39.301Z,5.57
2018-05-25T20:07:06.752Z,5.37
2018-05-25T20:09:34.212Z,5.40
2018-05-25T20:12:01.680Z,5.27
2018-05-25T20:14:29.141Z,5.00
2018-05-25T20:16:57.720Z,5.13
2018-05-25T20:19:25.246Z,5.17
2018-05-25T20:21:53.466Z,4.90
2018-05-25T20:24:20.936Z,5.00
2018-05-25T20:26:48.407Z,5.07
2018-05-25T20:29:15.885Z,4.40
2018-05-25T20:31:43.392Z,4.70
2018-05-25T20:34:10.865Z,4.37
2018-05-25T20:36:38.373Z,4.20
2018-05-25T20:39:06.655Z,4.40
2018-05-25T20:41:34.124Z,4.43
2018-05-25T20:44:03.105Z,4.30
2018-05-25T20:46:30.674Z,4.30
2018-05-25T20:48:58.191Z,3.90
2018-05-25T20:51:25.690Z,4.20
2018-05-25T20:53:53.184Z,3.73
2018-05-25T20:56:21.450Z,4.37
2018-05-25T20:58:48.934Z,3.90
2018-05-25T21:01:17.165Z,4.20
2018-05-25T21:03:44.623Z,3.97
2018-05-25T21:06:12.140Z,3.70
2018-05-25T21:08:40.360Z,3.80
2018-05-25T21:11:07.913Z,3.67
2018-05-25T21:13:35.407Z,3.73
2018-05-25T21:16:02.868Z,4.20
2018-05-25T21:18:30.332Z,3.67
2018-05-25T21:20:57.798Z,3.50
2018-05-25T21:23:27.135Z,3.57
2018-05-25T21:25:55.348Z,3.47
2018-05-25T21:28:22.834Z,3.40
2018-05-25T21:30:50.338Z,2.90
2018-05-25T21:33:18.567Z,3.43
2018-05-25T21:35:46.027Z,2.97
2018-05-25T21:38:13.505Z,3.00
2018-05-25T21:40:41.082Z,3.13
2018-05-25T21:43:08.541Z,3.40
2018-05-25T21:45:36.102Z,3.50
2018-05-25T21:48:03.674Z,3.50
2018-05-25T21:50:31.966Z,3.27
2018-05-25T21:53:00.186Z,3.57
2018-05-25T21:55:27.645Z,3.10
2018-05-25T21:57:55.111Z,3.20
2018-05-25T22:00:22.578Z,3.10
2018-05-25T22:02:50.071Z,3.10
2018-05-25T22:05:17.541Z,3.37
2018-05-25T22:07:45.814Z,3.30
2018-05-25T22:10:13.272Z,3.73
2018-05-25T22:12:40.736Z,3.10
2018-05-25T22:15:08.312Z,3.43
2018-05-25T22:17:35.765Z,3.30
2018-05-25T22:20:03.250Z,4.57
2018-05-25T22:22:30.712Z,3.60
2018-05-25T22:24:58.169Z,3.00
2018-05-25T22:27:27.860Z,3.20
2018-05-25T22:29:55.821Z,3.10
2018-05-25T22:32:23.333Z,3.27
2018-05-25T22:34:51.611Z,3.83
2018-05-25T22:37:19.831Z,3.90
2018-05-25T22:39:47.295Z,3.83
2018-05-25T22:42:26.844Z,3.57
2018-05-25T22:45:06.302Z,4.03
2018-05-25T22:47:45.780Z,4.80
2018-05-25T22:50:25.470Z,4.23
2018-05-25T22:52:58.038Z,3.80
2018-05-25T22:55:26.193Z,4.70
2018-05-25T22:57:53.668Z,5.47
2018-05-25T23:00:21.144Z,5.03
2018-05-25T23:02:48.613Z,5.10
2018-05-25T23:05:16.069Z,4.93
2018-05-25T23:07:43.640Z,5.17
2018-05-25T23:10:11.217Z,3.63
2018-05-25T23:12:38.685Z,4.90
2018-05-25T23:15:06.939Z,4.93
2018-05-25T23:17:34.448Z,5.00
2018-05-25T23:20:03.422Z,4.10
2018-05-25T23:22:31.676Z,5.30
2018-05-25T23:24:59.148Z,4.77
2018-05-25T23:27:26.732Z,4.40
2018-05-25T23:29:54.985Z,5.50
2018-05-25T23:32:22.451Z,5.10
2018-05-25T23:34:50.039Z,5.27
2018-05-25T23:37:17.533Z,4.80
2018-05-25T23:39:45.016Z,5.00
2018-05-25T23:42:12.473Z,4.60
2018-05-25T23:44:39.980Z,4.87
2018-05-25T23:47:08.973Z,4.80
2018-05-25T23:49:36.443Z,5.67
2018-05-25T23:52:03.909Z,4.97
2018-05-25T23:54:32.148Z,4.90
2018-05-25T23:56:59.592Z,4.90
2018-05-25T23:59:27.063Z,4.97
